sensor_id;sensor_type;location;lat;lon;timestamp;temperature;humidity
28177;DHT22;15461;41.652;9.378;2023-05-08T00:01:47;14.20;99.90
28177;DHT22;15461;41.652;9.378;2023-05-08T00:04:13;14.20;99.90
28177;DHT22;15461;41.652;9.378;2023-05-08T00:06:38;14.20;99.90
28177;DHT22;15461;41.652;9.378;2023-05-08T00:09:04;14.20;99.90
28177;DHT22;15461;41.652;9.378;2023-05-08T00:11:30;14.20;99.90
28177;DHT22;15461;41.652;9.378;2023-05-08T00:13:56;14.20;99.90
28177;DHT22;15461;41.652;9.378;2023-05-08T00:16:22;14.30;99.90
28177;DHT22;15461;41.652;9.378;2023-05-08T00:18:48;14.30;99.90
28177;DHT22;15461;41.652;9.378;2023-05-08T00:21:14;14.40;99.90
28177;DHT22;15461;41.652;9.378;2023-05-08T00:23:40;14.40;99.90
28177;DHT22;15461;41.652;9.378;2023-05-08T00:26:06;14.50;99.90
28177;DHT22;15461;41.652;9.378;2023-05-08T00:28:32;14.50;99.90
28177;DHT22;15461;41.652;9.378;2023-05-08T00:31:00;14.50;99.90
28177;DHT22;15461;41.652;9.378;2023-05-08T00:33:26;14.50;99.90
28177;DHT22;15461;41.652;9.378;2023-05-08T00:36:03;14.50;99.90
28177;DHT22;15461;41.652;9.378;2023-05-08T00:38:32;14.60;99.90
28177;DHT22;15461;41.652;9.378;2023-05-08T00:40:59;14.70;99.90
28177;DHT22;15461;41.652;9.378;2023-05-08T00:43:25;14.70;99.90
28177;DHT22;15461;41.652;9.378;2023-05-08T00:45:57;14.80;99.90
28177;DHT22;15461;41.652;9.378;2023-05-08T00:48:24;14.90;99.90
28177;DHT22;15461;41.652;9.378;2023-05-08T00:50:54;14.90;99.90
28177;DHT22;15461;41.652;9.378;2023-05-08T00:53:21;14.90;99.90
28177;DHT22;15461;41.652;9.378;2023-05-08T00:55:49;15.00;99.90
28177;DHT22;15461;41.652;9.378;2023-05-08T00:58:16;14.90;99.90
28177;DHT22;15461;41.652;9.378;2023-05-08T01:00:43;14.90;99.90
28177;DHT22;15461;41.652;9.378;2023-05-08T01:03:11;15.00;99.90
28177;DHT22;15461;41.652;9.378;2023-05-08T01:05:37;15.00;99.90
28177;DHT22;15461;41.652;9.378;2023-05-08T01:08:03;15.00;99.90
28177;DHT22;15461;41.652;9.378;2023-05-08T01:19:26;15.00;99.90
28177;DHT22;15461;41.652;9.378;2023-05-08T01:22:04;14.90;99.90
28177;DHT22;15461;41.652;9.378;2023-05-08T01:32:35;15.00;99.90
28177;DHT22;15461;41.652;9.378;2023-05-08T01:35:26;15.10;99.90
28177;DHT22;15461;41.652;9.378;2023-05-08T01:38:30;15.10;99.90
28177;DHT22;15461;41.652;9.378;2023-05-08T01:43:37;15.20;99.90
28177;DHT22;15461;41.652;9.378;2023-05-08T01:46:10;15.20;99.90
28177;DHT22;15461;41.652;9.378;2023-05-08T01:48:48;15.20;99.90
28177;DHT22;15461;41.652;9.378;2023-05-08T01:51:21;15.20;99.90
28177;DHT22;15461;41.652;9.378;2023-05-08T01:53:55;15.30;99.90
28177;DHT22;15461;41.652;9.378;2023-05-08T01:56:23;15.30;99.90
28177;DHT22;15461;41.652;9.378;2023-05-08T01:58:50;15.30;99.90
28177;DHT22;15461;41.652;9.378;2023-05-08T02:01:22;15.40;99.90
28177;DHT22;15461;41.652;9.378;2023-05-08T02:03:49;15.40;99.90
28177;DHT22;15461;41.652;9.378;2023-05-08T02:06:21;15.40;99.90
28177;DHT22;15461;41.652;9.378;2023-05-08T02:08:48;15.40;99.90
28177;DHT22;15461;41.652;9.378;2023-05-08T02:11:16;15.50;99.90
28177;DHT22;15461;41.652;9.378;2023-05-08T02:13:45;15.50;99.90
28177;DHT22;15461;41.652;9.378;2023-05-08T02:16:12;15.50;99.90
28177;DHT22;15461;41.652;9.378;2023-05-08T02:18:41;15.50;99.90
28177;DHT22;15461;41.652;9.378;2023-05-08T02:21:08;15.50;99.90
28177;DHT22;15461;41.652;9.378;2023-05-08T02:23:37;15.50;99.90
28177;DHT22;15461;41.652;9.378;2023-05-08T02:26:03;15.60;99.90
28177;DHT22;15461;41.652;9.378;2023-05-08T02:28:30;15.60;99.90
28177;DHT22;15461;41.652;9.378;2023-05-08T02:30:57;15.60;99.90
28177;DHT22;15461;41.652;9.378;2023-05-08T02:33:26;15.70;99.90
28177;DHT22;15461;41.652;9.378;2023-05-08T02:35:53;15.60;99.90
28177;DHT22;15461;41.652;9.378;2023-05-08T02:38:22;15.60;99.90
28177;DHT22;15461;41.652;9.378;2023-05-08T02:40:53;15.70;99.90
28177;DHT22;15461;41.652;9.378;2023-05-08T02:43:20;15.70;99.90
28177;DHT22;15461;41.652;9.378;2023-05-08T02:46:18;15.70;99.90
28177;DHT22;15461;41.652;9.378;2023-05-08T02:49:02;15.70;99.90
28177;DHT22;15461;41.652;9.378;2023-05-08T02:51:50;15.70;99.90
28177;DHT22;15461;41.652;9.378;2023-05-08T03:02:43;15.80;99.90
28177;DHT22;15461;41.652;9.378;2023-05-08T03:05:24;15.80;99.90
28177;DHT22;15461;41.652;9.378;2023-05-08T03:07:56;15.80;99.90
28177;DHT22;15461;41.652;9.378;2023-05-08T03:10:28;15.80;99.90
28177;DHT22;15461;41.652;9.378;2023-05-08T03:12:57;15.80;99.90
28177;DHT22;15461;41.652;9.378;2023-05-08T03:15:33;15.80;99.90
28177;DHT22;15461;41.652;9.378;2023-05-08T03:18:12;15.80;99.90
28177;DHT22;15461;41.652;9.378;2023-05-08T03:20:44;15.80;99.90
28177;DHT22;15461;41.652;9.378;2023-05-08T03:23:13;15.90;99.90
28177;DHT22;15461;41.652;9.378;2023-05-08T03:25:43;15.90;99.90
28177;DHT22;15461;41.652;9.378;2023-05-08T03:28:12;15.90;99.90
28177;DHT22;15461;41.652;9.378;2023-05-08T03:30:40;15.90;99.90
28177;DHT22;15461;41.652;9.378;2023-05-08T03:33:10;15.90;99.90
28177;DHT22;15461;41.652;9.378;2023-05-08T03:35:38;15.80;99.90
28177;DHT22;15461;41.652;9.378;2023-05-08T03:38:06;15.90;99.90
28177;DHT22;15461;41.652;9.378;2023-05-08T03:40:34;15.90;99.90
28177;DHT22;15461;41.652;9.378;2023-05-08T03:43:10;15.90;99.90
28177;DHT22;15461;41.652;9.378;2023-05-08T03:45:39;15.80;99.90
28177;DHT22;15461;41.652;9.378;2023-05-08T03:48:07;15.80;99.90
28177;DHT22;15461;41.652;9.378;2023-05-08T03:50:36;15.70;99.90
28177;DHT22;15461;41.652;9.378;2023-05-08T03:53:04;15.80;99.90
28177;DHT22;15461;41.652;9.378;2023-05-08T03:55:30;15.80;99.90
28177;DHT22;15461;41.652;9.378;2023-05-08T03:58:04;15.80;99.90
28177;DHT22;15461;41.652;9.378;2023-05-08T04:00:56;15.80;99.90
28177;DHT22;15461;41.652;9.378;2023-05-08T04:04:21;15.80;99.90
28177;DHT22;15461;41.652;9.378;2023-05-08T04:06:34;15.80;99.90
28177;DHT22;15461;41.652;9.378;2023-05-08T04:14:39;15.80;99.90
28177;DHT22;15461;41.652;9.378;2023-05-08T04:17:09;15.80;99.90
28177;DHT22;15461;41.652;9.378;2023-05-08T04:19:41;15.80;99.90
28177;DHT22;15461;41.652;9.378;2023-05-08T04:22:09;15.80;99.90
28177;DHT22;15461;41.652;9.378;2023-05-08T04:24:41;15.80;99.90
28177;DHT22;15461;41.652;9.378;2023-05-08T04:27:08;15.90;99.90
28177;DHT22;15461;41.652;9.378;2023-05-08T04:29:35;15.90;99.90
28177;DHT22;15461;41.652;9.378;2023-05-08T04:32:04;15.90;99.90
28177;DHT22;15461;41.652;9.378;2023-05-08T04:34:31;15.90;99.90
28177;DHT22;15461;41.652;9.378;2023-05-08T04:36:58;16.00;99.90
28177;DHT22;15461;41.652;9.378;2023-05-08T04:39:24;16.00;99.90
28177;DHT22;15461;41.652;9.378;2023-05-08T04:41:50;16.00;99.90
28177;DHT22;15461;41.652;9.378;2023-05-08T04:44:18;16.00;99.90
28177;DHT22;15461;41.652;9.378;2023-05-08T04:46:44;16.00;99.90
28177;DHT22;15461;41.652;9.378;2023-05-08T04:49:10;16.00;99.90
28177;DHT22;15461;41.652;9.378;2023-05-08T04:51:36;16.10;99.90
28177;DHT22;15461;41.652;9.378;2023-05-08T04:54:02;16.10;99.90
28177;DHT22;15461;41.652;9.378;2023-05-08T04:56:28;16.00;99.90
28177;DHT22;15461;41.652;9.378;2023-05-08T04:58:54;16.10;99.90
28177;DHT22;15461;41.652;9.378;2023-05-08T05:01:22;16.00;99.90
28177;DHT22;15461;41.652;9.378;2023-05-08T05:03:48;16.10;99.90
28177;DHT22;15461;41.652;9.378;2023-05-08T05:06:14;16.10;99.90
28177;DHT22;15461;41.652;9.378;2023-05-08T05:08:39;16.10;99.90
28177;DHT22;15461;41.652;9.378;2023-05-08T05:11:05;16.10;99.90
28177;DHT22;15461;41.652;9.378;2023-05-08T05:13:32;16.10;99.90
28177;DHT22;15461;41.652;9.378;2023-05-08T05:16:01;16.10;99.90
28177;DHT22;15461;41.652;9.378;2023-05-08T05:18:26;16.10;99.90
28177;DHT22;15461;41.652;9.378;2023-05-08T05:20:56;16.00;99.90
28177;DHT22;15461;41.652;9.378;2023-05-08T05:23:23;16.00;99.90
28177;DHT22;15461;41.652;9.378;2023-05-08T05:25:48;16.00;99.90
28177;DHT22;15461;41.652;9.378;2023-05-08T05:28:15;16.00;99.90
28177;DHT22;15461;41.652;9.378;2023-05-08T05:30:41;16.10;99.90
28177;DHT22;15461;41.652;9.378;2023-05-08T05:33:07;16.10;99.90
28177;DHT22;15461;41.652;9.378;2023-05-08T05:35:33;16.10;99.90
28177;DHT22;15461;41.652;9.378;2023-05-08T05:37:59;16.10;99.90
28177;DHT22;15461;41.652;9.378;2023-05-08T05:40:26;16.10;99.90
28177;DHT22;15461;41.652;9.378;2023-05-08T05:42:52;16.20;99.90
28177;DHT22;15461;41.652;9.378;2023-05-08T05:45:19;16.20;99.90
28177;DHT22;15461;41.652;9.378;2023-05-08T05:47:46;16.20;99.90
28177;DHT22;15461;41.652;9.378;2023-05-08T05:50:16;16.30;99.90
28177;DHT22;15461;41.652;9.378;2023-05-08T05:52:46;16.30;99.90
28177;DHT22;15461;41.652;9.378;2023-05-08T05:55:12;16.30;99.90
28177;DHT22;15461;41.652;9.378;2023-05-08T05:57:38;16.30;99.90
28177;DHT22;15461;41.652;9.378;2023-05-08T06:00:05;16.40;99.90
28177;DHT22;15461;41.652;9.378;2023-05-08T06:02:39;16.40;99.90
28177;DHT22;15461;41.652;9.378;2023-05-08T06:05:11;16.50;99.90
28177;DHT22;15461;41.652;9.378;2023-05-08T06:07:36;16.50;99.90
28177;DHT22;15461;41.652;9.378;2023-05-08T06:10:03;16.60;99.90
28177;DHT22;15461;41.652;9.378;2023-05-08T06:12:29;16.60;99.90
28177;DHT22;15461;41.652;9.378;2023-05-08T06:14:56;16.60;99.90
28177;DHT22;15461;41.652;9.378;2023-05-08T06:17:22;16.70;99.90
28177;DHT22;15461;41.652;9.378;2023-05-08T06:19:48;16.70;99.90
28177;DHT22;15461;41.652;9.378;2023-05-08T06:22:16;16.80;99.90
28177;DHT22;15461;41.652;9.378;2023-05-08T06:24:43;16.80;99.90
28177;DHT22;15461;41.652;9.378;2023-05-08T06:27:09;16.90;99.90
28177;DHT22;15461;41.652;9.378;2023-05-08T06:29:35;17.00;99.90
28177;DHT22;15461;41.652;9.378;2023-05-08T06:32:01;17.10;99.90
28177;DHT22;15461;41.652;9.378;2023-05-08T06:34:27;17.20;99.90
28177;DHT22;15461;41.652;9.378;2023-05-08T06:36:53;17.20;99.90
28177;DHT22;15461;41.652;9.378;2023-05-08T06:39:19;17.40;99.90
28177;DHT22;15461;41.652;9.378;2023-05-08T06:41:48;17.50;99.90
28177;DHT22;15461;41.652;9.378;2023-05-08T06:44:22;17.60;99.90
28177;DHT22;15461;41.652;9.378;2023-05-08T06:46:48;17.70;99.90
28177;DHT22;15461;41.652;9.378;2023-05-08T06:49:14;17.80;99.90
28177;DHT22;15461;41.652;9.378;2023-05-08T06:51:40;17.80;99.90
28177;DHT22;15461;41.652;9.378;2023-05-08T06:54:06;17.90;99.90
28177;DHT22;15461;41.652;9.378;2023-05-08T06:56:36;18.00;99.90
28177;DHT22;15461;41.652;9.378;2023-05-08T06:59:01;18.10;99.90
28177;DHT22;15461;41.652;9.378;2023-05-08T07:01:27;18.20;99.90
28177;DHT22;15461;41.652;9.378;2023-05-08T07:03:53;18.30;99.90
28177;DHT22;15461;41.652;9.378;2023-05-08T07:06:19;18.50;99.90
28177;DHT22;15461;41.652;9.378;2023-05-08T07:08:45;18.60;99.90
28177;DHT22;15461;41.652;9.378;2023-05-08T07:11:11;18.80;99.90
28177;DHT22;15461;41.652;9.378;2023-05-08T07:13:37;18.90;99.90
28177;DHT22;15461;41.652;9.378;2023-05-08T07:16:10;19.00;99.90
28177;DHT22;15461;41.652;9.378;2023-05-08T07:18:36;19.20;99.90
28177;DHT22;15461;41.652;9.378;2023-05-08T07:21:03;19.30;99.90
28177;DHT22;15461;41.652;9.378;2023-05-08T07:23:29;19.40;99.90
28177;DHT22;15461;41.652;9.378;2023-05-08T07:25:54;19.50;99.90
28177;DHT22;15461;41.652;9.378;2023-05-08T07:28:20;19.70;99.90
28177;DHT22;15461;41.652;9.378;2023-05-08T07:30:46;19.80;99.90
28177;DHT22;15461;41.652;9.378;2023-05-08T07:33:13;19.90;99.90
28177;DHT22;15461;41.652;9.378;2023-05-08T07:35:40;19.90;99.90
28177;DHT22;15461;41.652;9.378;2023-05-08T07:38:06;19.80;99.90
28177;DHT22;15461;41.652;9.378;2023-05-08T07:40:32;19.90;99.90
28177;DHT22;15461;41.652;9.378;2023-05-08T07:42:58;19.70;99.90
28177;DHT22;15461;41.652;9.378;2023-05-08T07:45:24;19.70;99.90
28177;DHT22;15461;41.652;9.378;2023-05-08T07:47:52;19.80;99.90
28177;DHT22;15461;41.652;9.378;2023-05-08T07:50:19;19.90;99.90
28177;DHT22;15461;41.652;9.378;2023-05-08T07:52:46;20.00;99.90
28177;DHT22;15461;41.652;9.378;2023-05-08T07:55:12;20.20;99.90
28177;DHT22;15461;41.652;9.378;2023-05-08T07:57:42;20.20;99.90
28177;DHT22;15461;41.652;9.378;2023-05-08T08:00:10;20.40;99.90
28177;DHT22;15461;41.652;9.378;2023-05-08T08:02:41;20.40;99.90
28177;DHT22;15461;41.652;9.378;2023-05-08T08:05:07;20.40;99.90
28177;DHT22;15461;41.652;9.378;2023-05-08T08:07:33;20.40;99.90
28177;DHT22;15461;41.652;9.378;2023-05-08T08:10:01;20.40;99.90
28177;DHT22;15461;41.652;9.378;2023-05-08T08:12:28;20.40;99.90
28177;DHT22;15461;41.652;9.378;2023-05-08T08:14:54;20.40;99.90
28177;DHT22;15461;41.652;9.378;2023-05-08T08:17:20;20.40;99.90
28177;DHT22;15461;41.652;9.378;2023-05-08T08:19:47;20.30;99.90
28177;DHT22;15461;41.652;9.378;2023-05-08T08:22:13;20.20;99.90
28177;DHT22;15461;41.652;9.378;2023-05-08T08:24:39;20.20;99.90
28177;DHT22;15461;41.652;9.378;2023-05-08T08:27:05;20.20;99.90
28177;DHT22;15461;41.652;9.378;2023-05-08T08:29:31;20.10;99.90
28177;DHT22;15461;41.652;9.378;2023-05-08T08:31:57;20.00;99.90
28177;DHT22;15461;41.652;9.378;2023-05-08T08:34:22;20.00;99.90
28177;DHT22;15461;41.652;9.378;2023-05-08T08:36:48;20.10;99.90
28177;DHT22;15461;41.652;9.378;2023-05-08T08:39:14;20.10;99.90
28177;DHT22;15461;41.652;9.378;2023-05-08T08:41:40;20.20;99.90
28177;DHT22;15461;41.652;9.378;2023-05-08T08:44:06;20.20;99.90
28177;DHT22;15461;41.652;9.378;2023-05-08T08:46:32;20.20;99.90
28177;DHT22;15461;41.652;9.378;2023-05-08T08:48:58;20.20;99.90
28177;DHT22;15461;41.652;9.378;2023-05-08T08:51:31;20.10;99.90
28177;DHT22;15461;41.652;9.378;2023-05-08T08:54:11;20.00;99.90
28177;DHT22;15461;41.652;9.378;2023-05-08T08:56:39;20.10;99.90
28177;DHT22;15461;41.652;9.378;2023-05-08T08:59:08;20.00;99.90
28177;DHT22;15461;41.652;9.378;2023-05-08T09:01:37;20.00;99.90
28177;DHT22;15461;41.652;9.378;2023-05-08T09:04:04;20.10;99.90
28177;DHT22;15461;41.652;9.378;2023-05-08T09:06:34;20.30;99.90
28177;DHT22;15461;41.652;9.378;2023-05-08T09:09:00;20.40;99.90
28177;DHT22;15461;41.652;9.378;2023-05-08T09:11:27;20.40;99.90
28177;DHT22;15461;41.652;9.378;2023-05-08T09:13:57;20.30;99.90
28177;DHT22;15461;41.652;9.378;2023-05-08T09:16:23;20.30;99.90
28177;DHT22;15461;41.652;9.378;2023-05-08T09:18:50;20.30;99.90
28177;DHT22;15461;41.652;9.378;2023-05-08T09:21:16;20.40;99.90
28177;DHT22;15461;41.652;9.378;2023-05-08T09:23:58;20.50;99.90
28177;DHT22;15461;41.652;9.378;2023-05-08T09:26:34;20.50;99.90
28177;DHT22;15461;41.652;9.378;2023-05-08T09:29:07;20.40;99.90
28177;DHT22;15461;41.652;9.378;2023-05-08T09:31:34;20.50;99.90
28177;DHT22;15461;41.652;9.378;2023-05-08T09:34:00;20.60;99.90
28177;DHT22;15461;41.652;9.378;2023-05-08T09:36:26;20.80;99.90
28177;DHT22;15461;41.652;9.378;2023-05-08T09:38:53;21.10;99.90
28177;DHT22;15461;41.652;9.378;2023-05-08T09:41:19;21.30;99.90
28177;DHT22;15461;41.652;9.378;2023-05-08T09:44:02;21.40;99.90
28177;DHT22;15461;41.652;9.378;2023-05-08T09:46:29;21.20;99.90
28177;DHT22;15461;41.652;9.378;2023-05-08T09:48:57;21.00;99.90
28177;DHT22;15461;41.652;9.378;2023-05-08T09:51:24;20.80;99.90
28177;DHT22;15461;41.652;9.378;2023-05-08T09:53:55;20.70;99.90
28177;DHT22;15461;41.652;9.378;2023-05-08T09:56:31;20.60;99.90
28177;DHT22;15461;41.652;9.378;2023-05-08T09:58:58;20.60;99.90
28177;DHT22;15461;41.652;9.378;2023-05-08T10:03:56;20.60;99.90
28177;DHT22;15461;41.652;9.378;2023-05-08T10:06:22;20.80;99.90
28177;DHT22;15461;41.652;9.378;2023-05-08T10:08:48;20.90;99.90
28177;DHT22;15461;41.652;9.378;2023-05-08T10:11:16;21.00;99.90
28177;DHT22;15461;41.652;9.378;2023-05-08T10:13:43;21.00;99.90
28177;DHT22;15461;41.652;9.378;2023-05-08T10:16:19;20.90;99.90
28177;DHT22;15461;41.652;9.378;2023-05-08T10:18:53;20.80;99.90
28177;DHT22;15461;41.652;9.378;2023-05-08T10:21:23;20.80;99.90
28177;DHT22;15461;41.652;9.378;2023-05-08T10:23:53;20.60;99.90
28177;DHT22;15461;41.652;9.378;2023-05-08T10:26:26;20.60;99.90
28177;DHT22;15461;41.652;9.378;2023-05-08T10:28:56;20.80;99.90
28177;DHT22;15461;41.652;9.378;2023-05-08T10:31:27;20.80;99.90
28177;DHT22;15461;41.652;9.378;2023-05-08T10:34:00;20.70;99.90
28177;DHT22;15461;41.652;9.378;2023-05-08T10:36:27;20.80;99.90
28177;DHT22;15461;41.652;9.378;2023-05-08T10:38:53;20.80;99.90
28177;DHT22;15461;41.652;9.378;2023-05-08T10:41:19;20.70;99.90
28177;DHT22;15461;41.652;9.378;2023-05-08T10:43:47;20.80;99.90
28177;DHT22;15461;41.652;9.378;2023-05-08T10:46:21;20.90;99.90
28177;DHT22;15461;41.652;9.378;2023-05-08T10:48:59;21.00;99.90
28177;DHT22;15461;41.652;9.378;2023-05-08T10:54:11;20.90;99.90
28177;DHT22;15461;41.652;9.378;2023-05-08T10:56:38;21.00;99.90
28177;DHT22;15461;41.652;9.378;2023-05-08T10:59:04;21.20;99.90
28177;DHT22;15461;41.652;9.378;2023-05-08T11:01:30;21.30;99.90
28177;DHT22;15461;41.652;9.378;2023-05-08T11:03:56;21.40;99.90
28177;DHT22;15461;41.652;9.378;2023-05-08T11:09:08;21.40;99.90
28177;DHT22;15461;41.652;9.378;2023-05-08T11:11:37;21.40;99.90
28177;DHT22;15461;41.652;9.378;2023-05-08T11:19:25;21.50;99.90
28177;DHT22;15461;41.652;9.378;2023-05-08T11:24:52;21.40;99.90
28177;DHT22;15461;41.652;9.378;2023-05-08T11:30:22;21.30;99.90
28177;DHT22;15461;41.652;9.378;2023-05-08T11:33:11;21.20;99.90
28177;DHT22;15461;41.652;9.378;2023-05-08T11:35:45;21.10;99.90
28177;DHT22;15461;41.652;9.378;2023-05-08T11:40:55;21.00;99.90
28177;DHT22;15461;41.652;9.378;2023-05-08T11:43:28;21.00;99.90
28177;DHT22;15461;41.652;9.378;2023-05-08T11:45:59;20.90;99.90
28177;DHT22;15461;41.652;9.378;2023-05-08T11:48:26;20.90;99.90
28177;DHT22;15461;41.652;9.378;2023-05-08T11:50:52;20.90;99.90
28177;DHT22;15461;41.652;9.378;2023-05-08T11:53:18;20.90;99.90
28177;DHT22;15461;41.652;9.378;2023-05-08T11:55:48;20.80;99.90
28177;DHT22;15461;41.652;9.378;2023-05-08T11:58:15;20.80;99.90
28177;DHT22;15461;41.652;9.378;2023-05-08T12:00:42;20.80;99.90
28177;DHT22;15461;41.652;9.378;2023-05-08T12:03:12;20.80;99.90
28177;DHT22;15461;41.652;9.378;2023-05-08T12:05:38;20.70;99.90
28177;DHT22;15461;41.652;9.378;2023-05-08T12:08:08;20.70;99.90
28177;DHT22;15461;41.652;9.378;2023-05-08T12:10:51;20.80;99.90
28177;DHT22;15461;41.652;9.378;2023-05-08T12:13:19;20.90;99.90
28177;DHT22;15461;41.652;9.378;2023-05-08T12:15:46;21.00;99.90
28177;DHT22;15461;41.652;9.378;2023-05-08T12:18:12;21.00;99.90
28177;DHT22;15461;41.652;9.378;2023-05-08T12:20:38;21.00;99.90
28177;DHT22;15461;41.652;9.378;2023-05-08T12:23:04;21.10;99.90
28177;DHT22;15461;41.652;9.378;2023-05-08T12:25:30;21.20;99.90
28177;DHT22;15461;41.652;9.378;2023-05-08T12:27:57;21.30;99.90
28177;DHT22;15461;41.652;9.378;2023-05-08T12:30:24;21.30;99.90
28177;DHT22;15461;41.652;9.378;2023-05-08T12:32:51;21.30;99.90
28177;DHT22;15461;41.652;9.378;2023-05-08T12:35:17;21.40;99.90
28177;DHT22;15461;41.652;9.378;2023-05-08T12:37:44;21.40;99.90
28177;DHT22;15461;41.652;9.378;2023-05-08T12:40:25;21.40;99.90
28177;DHT22;15461;41.652;9.378;2023-05-08T12:42:52;21.50;99.90
28177;DHT22;15461;41.652;9.378;2023-05-08T12:45:20;21.70;99.90
28177;DHT22;15461;41.652;9.378;2023-05-08T12:47:50;22.00;99.90
28177;DHT22;15461;41.652;9.378;2023-05-08T12:50:18;22.30;99.90
28177;DHT22;15461;41.652;9.378;2023-05-08T12:52:48;22.60;99.90
28177;DHT22;15461;41.652;9.378;2023-05-08T12:55:28;22.80;99.90
28177;DHT22;15461;41.652;9.378;2023-05-08T13:00:24;22.60;99.90
28177;DHT22;15461;41.652;9.378;2023-05-08T13:02:52;22.40;99.90
28177;DHT22;15461;41.652;9.378;2023-05-08T13:05:20;22.30;99.90
28177;DHT22;15461;41.652;9.378;2023-05-08T13:07:47;22.10;99.90
28177;DHT22;15461;41.652;9.378;2023-05-08T13:10:13;21.90;99.90
28177;DHT22;15461;41.652;9.378;2023-05-08T13:12:39;21.70;99.90
28177;DHT22;15461;41.652;9.378;2023-05-08T13:15:06;21.60;99.90
28177;DHT22;15461;41.652;9.378;2023-05-08T13:17:32;21.40;99.90
28177;DHT22;15461;41.652;9.378;2023-05-08T13:19:57;21.30;99.90
28177;DHT22;15461;41.652;9.378;2023-05-08T13:22:23;21.20;99.90
28177;DHT22;15461;41.652;9.378;2023-05-08T13:24:54;21.10;99.90
28177;DHT22;15461;41.652;9.378;2023-05-08T13:27:20;21.00;99.90
28177;DHT22;15461;41.652;9.378;2023-05-08T13:29:46;20.90;99.90
28177;DHT22;15461;41.652;9.378;2023-05-08T13:32:12;20.80;99.90
28177;DHT22;15461;41.652;9.378;2023-05-08T13:34:39;20.70;99.90
28177;DHT22;15461;41.652;9.378;2023-05-08T13:37:05;20.70;99.90
28177;DHT22;15461;41.652;9.378;2023-05-08T13:39:31;20.70;99.90
28177;DHT22;15461;41.652;9.378;2023-05-08T13:42:02;20.60;99.90
28177;DHT22;15461;41.652;9.378;2023-05-08T13:44:28;20.70;99.90
28177;DHT22;15461;41.652;9.378;2023-05-08T13:46:54;20.60;99.90
28177;DHT22;15461;41.652;9.378;2023-05-08T13:49:20;20.60;99.90
28177;DHT22;15461;41.652;9.378;2023-05-08T13:51:49;20.50;99.90
28177;DHT22;15461;41.652;9.378;2023-05-08T13:54:15;20.40;99.90
28177;DHT22;15461;41.652;9.378;2023-05-08T13:56:41;20.50;99.90
28177;DHT22;15461;41.652;9.378;2023-05-08T13:59:07;20.60;99.90
28177;DHT22;15461;41.652;9.378;2023-05-08T14:01:33;20.60;99.90
28177;DHT22;15461;41.652;9.378;2023-05-08T14:03:59;20.60;99.90
28177;DHT22;15461;41.652;9.378;2023-05-08T14:06:25;20.40;99.90
28177;DHT22;15461;41.652;9.378;2023-05-08T14:08:51;20.10;99.90
28177;DHT22;15461;41.652;9.378;2023-05-08T14:11:17;20.00;99.90
28177;DHT22;15461;41.652;9.378;2023-05-08T14:13:43;19.90;99.90
28177;DHT22;15461;41.652;9.378;2023-05-08T14:16:08;19.80;99.90
28177;DHT22;15461;41.652;9.378;2023-05-08T14:18:36;19.90;99.90
28177;DHT22;15461;41.652;9.378;2023-05-08T14:21:02;19.80;99.90
28177;DHT22;15461;41.652;9.378;2023-05-08T14:23:28;19.80;99.90
28177;DHT22;15461;41.652;9.378;2023-05-08T14:25:54;19.80;99.90
28177;DHT22;15461;41.652;9.378;2023-05-08T14:28:20;19.80;99.90
28177;DHT22;15461;41.652;9.378;2023-05-08T14:30:46;19.80;99.90
28177;DHT22;15461;41.652;9.378;2023-05-08T14:33:12;19.90;99.90
28177;DHT22;15461;41.652;9.378;2023-05-08T14:35:38;19.90;99.90
28177;DHT22;15461;41.652;9.378;2023-05-08T14:38:08;19.90;99.90
28177;DHT22;15461;41.652;9.378;2023-05-08T14:40:37;19.80;99.90
28177;DHT22;15461;41.652;9.378;2023-05-08T14:43:03;19.80;99.90
28177;DHT22;15461;41.652;9.378;2023-05-08T14:45:29;19.80;99.90
28177;DHT22;15461;41.652;9.378;2023-05-08T14:47:55;20.00;99.90
28177;DHT22;15461;41.652;9.378;2023-05-08T14:50:21;20.10;99.90
28177;DHT22;15461;41.652;9.378;2023-05-08T14:52:49;20.10;99.90
28177;DHT22;15461;41.652;9.378;2023-05-08T14:55:15;20.30;99.90
28177;DHT22;15461;41.652;9.378;2023-05-08T14:57:48;20.50;99.90
28177;DHT22;15461;41.652;9.378;2023-05-08T15:00:15;20.50;99.90
28177;DHT22;15461;41.652;9.378;2023-05-08T15:02:42;20.40;99.90
28177;DHT22;15461;41.652;9.378;2023-05-08T15:05:08;20.50;99.90
28177;DHT22;15461;41.652;9.378;2023-05-08T15:07:35;20.70;99.90
28177;DHT22;15461;41.652;9.378;2023-05-08T15:10:02;21.00;99.90
28177;DHT22;15461;41.652;9.378;2023-05-08T15:12:28;21.10;99.90
28177;DHT22;15461;41.652;9.378;2023-05-08T15:14:54;21.10;99.90
28177;DHT22;15461;41.652;9.378;2023-05-08T15:17:20;21.10;99.90
28177;DHT22;15461;41.652;9.378;2023-05-08T15:19:46;21.10;99.90
28177;DHT22;15461;41.652;9.378;2023-05-08T15:22:13;21.20;99.90
28177;DHT22;15461;41.652;9.378;2023-05-08T15:24:39;21.10;99.90
28177;DHT22;15461;41.652;9.378;2023-05-08T15:27:05;21.10;99.90
28177;DHT22;15461;41.652;9.378;2023-05-08T15:29:31;21.10;99.90
28177;DHT22;15461;41.652;9.378;2023-05-08T15:31:57;21.00;99.90
28177;DHT22;15461;41.652;9.378;2023-05-08T15:34:23;21.00;99.90
28177;DHT22;15461;41.652;9.378;2023-05-08T15:36:49;21.00;99.90
28177;DHT22;15461;41.652;9.378;2023-05-08T15:39:14;20.90;99.90
28177;DHT22;15461;41.652;9.378;2023-05-08T15:41:40;20.90;99.90
28177;DHT22;15461;41.652;9.378;2023-05-08T15:44:06;20.80;99.90
28177;DHT22;15461;41.652;9.378;2023-05-08T15:46:33;20.80;99.90
28177;DHT22;15461;41.652;9.378;2023-05-08T15:48:58;20.60;99.90
28177;DHT22;15461;41.652;9.378;2023-05-08T15:51:24;20.60;99.90
28177;DHT22;15461;41.652;9.378;2023-05-08T15:53:50;20.50;99.90
28177;DHT22;15461;41.652;9.378;2023-05-08T15:56:20;20.50;99.90
28177;DHT22;15461;41.652;9.378;2023-05-08T15:58:52;20.50;99.90
28177;DHT22;15461;41.652;9.378;2023-05-08T16:01:19;20.50;99.90
28177;DHT22;15461;41.652;9.378;2023-05-08T16:03:45;20.60;99.90
28177;DHT22;15461;41.652;9.378;2023-05-08T16:06:11;20.60;99.90
28177;DHT22;15461;41.652;9.378;2023-05-08T16:08:37;20.80;99.90
28177;DHT22;15461;41.652;9.378;2023-05-08T16:11:03;21.00;99.90
28177;DHT22;15461;41.652;9.378;2023-05-08T16:13:29;21.30;99.90
28177;DHT22;15461;41.652;9.378;2023-05-08T16:16:01;21.40;99.90
28177;DHT22;15461;41.652;9.378;2023-05-08T16:18:28;21.30;99.90
28177;DHT22;15461;41.652;9.378;2023-05-08T16:20:55;21.20;99.90
28177;DHT22;15461;41.652;9.378;2023-05-08T16:23:21;21.10;99.90
28177;DHT22;15461;41.652;9.378;2023-05-08T16:25:46;21.00;99.90
28177;DHT22;15461;41.652;9.378;2023-05-08T16:28:12;20.80;99.90
28177;DHT22;15461;41.652;9.378;2023-05-08T16:30:38;20.70;99.90
28177;DHT22;15461;41.652;9.378;2023-05-08T16:33:05;20.60;99.90
28177;DHT22;15461;41.652;9.378;2023-05-08T16:35:30;20.60;99.90